Rockledge, FL

16:38 EDT je la 25an de oktobro 2014 (GMT -0400)
Indian River Club | Change Station
CLOSE
Current Station
Personaj Veter-Stacioj
Location: Rockledge, FL
Alteco: 12 ft
Najbaraj veter-stacioj

Elev 12 ft 28.33 °N, 80.72 °W | Updated 4 seconds ago

Sennuba
Sennuba
75.5 °F
Sentas kiel 77 °F
N
11.0
Vento Varianta Vento from Nordo
Gusts 13.0 mej/h

hodiaŭ
High -- | Low -- °F
--% Ebla precip.
hieraŭ
High -- | Low -- °F
Precip. -- co
7:29 AM 6:43 PM
Kreskanta Lunarko, 4% visible
Aerpremo 29.94 co
Vidodistanco 10.0 mejloj
Nuboj Sennuba
Varmindico 77 °F
Rosopunkto 64 °F
Humido 67%
Pluvokvanto 0.00 co
Neĝprofundo Not available.
UV 4 out of 12
Pollen 5.80 out of 12
Aerkvalito Not available.
Flu Activity Local Activity
METAR KCOF 251958Z AUTO 36011KT 10SM CLR 26/17 A2992 RMK AO2 SLP136 T02570168

More Conditions Fewer Conditions

Aerpremo 29.94 co
Vidodistanco 10.0 mejloj
Nuboj Sennuba
Varmindico 77 °F
Rosopunkto 64 °F
Humido 67%
Pluvokvanto 0.00 co
Neĝprofundo Not available.
UV 4 out of 12
Pollen 5.80 out of 12
Aerkvalito Not available.
Flu Activity Local Activity
METAR KCOF 251958Z AUTO 36011KT 10SM CLR 26/17 A2992 RMK AO2 SLP136 T02570168

More Conditions Fewer Conditions

10-Day Weather Forecast

Almanac

Astronomio

Oct. 25, 2014 Leviĝo Subiro
Aktuala tempo 07:29 EDT 18:43 EDT
Civila krepusko 07:05 EDT 19:07 EDT
Naŭtika krepusko 06:38 EDT 19:35 EDT
Astronomia krepusko 06:10 EDT 20:02 EDT
Luno 09:01 EDT 20:12 EDT
Daŭro de videbla lumo 12h 02m
Daŭro de tago
11h 13m
Tomorrow will be 1m 33s shorter.
Kreskanta Lunarko, 4% of the Moon is Illuminated
hodiaŭ
Kreskanta Lunarko
Oct 30
Unua kvaronluno
Nov 6
Plenlumo
Nov 14
Lasta kvaronluno
Nov 22
Nova

Hodiaŭaj ekstremaĵoj

State Highs State Lows

Community

WunderPhotos

Upload Photos

1,764,985 photos uploaded!

Nearby

Neĝa profundeco

Station Depth Alteco
No new snow has been reported.

Earthquake Activity

Urbo Distance Mag. Time & Date
No recent earthquake activity has been reported nearby.
Minimum magnitude displayed is 2.5.

Coastal Water Temperatures

Loko Temperaturo
Trident Pier, FL 79.0 °F
Fort Myers, FL 78.1 °F
Lake Worth, FL 79.0 °F

Najbaraj veter-stacioj